createdAt,value
2023-01-15T00:00:26.515Z,0.00
2023-01-15T00:01:26.487Z,0.00
2023-01-15T00:02:26.493Z,0.00
2023-01-15T00:03:26.489Z,0.00
2023-01-15T00:04:27.221Z,0.00
2023-01-15T00:05:26.400Z,0.00
2023-01-15T00:06:26.417Z,0.00
2023-01-15T00:07:26.435Z,0.00
2023-01-15T00:08:27.231Z,0.00
2023-01-15T00:09:26.371Z,0.00
2023-01-15T00:10:26.398Z,0.00
2023-01-15T00:11:26.343Z,0.00
2023-01-15T00:12:26.385Z,0.00
2023-01-15T00:13:26.386Z,0.00
2023-01-15T00:14:26.356Z,0.00
2023-01-15T00:15:26.300Z,0.00
2023-01-15T00:16:26.257Z,0.00
2023-01-15T00:17:27.285Z,0.00
2023-01-15T00:18:26.281Z,0.00
2023-01-15T00:19:26.240Z,0.00
2023-01-15T00:20:26.261Z,0.00
2023-01-15T00:21:26.241Z,0.00
2023-01-15T00:22:26.202Z,0.00
2023-01-15T00:23:26.209Z,0.00
2023-01-15T00:24:26.207Z,0.00
2023-01-15T00:25:26.215Z,0.00
2023-01-15T00:26:26.151Z,0.00
2023-01-15T00:27:26.191Z,0.00
2023-01-15T00:28:26.127Z,0.00
2023-01-15T00:29:26.135Z,0.00
2023-01-15T00:30:26.163Z,0.00
2023-01-15T00:31:26.217Z,0.00
2023-01-15T00:32:26.120Z,0.00
2023-01-15T00:33:26.115Z,0.00
2023-01-15T00:34:26.087Z,0.00
2023-01-15T00:35:26.071Z,0.00
2023-01-15T00:36:26.084Z,0.00
2023-01-15T00:37:26.065Z,0.00
2023-01-15T00:38:26.015Z,0.00
2023-01-15T00:39:26.012Z,0.00
2023-01-15T00:40:26.020Z,0.00
2023-01-15T00:41:25.983Z,0.00
2023-01-15T00:42:26.030Z,0.00
2023-01-15T00:43:25.988Z,0.00
2023-01-15T00:44:25.951Z,0.00
2023-01-15T00:45:25.955Z,0.00
2023-01-15T00:46:25.977Z,0.00
2023-01-15T00:47:25.946Z,0.00
2023-01-15T00:48:25.919Z,0.00
2023-01-15T00:49:25.916Z,0.00
2023-01-15T00:50:25.943Z,0.00
2023-01-15T00:51:25.875Z,0.00
2023-01-15T00:52:25.883Z,0.00
2023-01-15T00:53:25.899Z,0.00
2023-01-15T00:54:25.876Z,0.00
2023-01-15T00:55:25.877Z,0.00
2023-01-15T00:56:25.846Z,0.00
2023-01-15T00:57:25.815Z,0.00
2023-01-15T00:58:25.806Z,0.00
2023-01-15T00:59:25.791Z,0.00
2023-01-15T01:00:25.776Z,0.00
2023-01-15T01:01:25.941Z,0.00
2023-01-15T01:02:25.840Z,0.00
2023-01-15T01:03:25.751Z,0.00
2023-01-15T01:04:25.768Z,0.00
2023-01-15T01:05:25.733Z,0.00
2023-01-15T01:06:25.703Z,0.00
2023-01-15T01:07:25.707Z,0.00
2023-01-15T01:08:25.700Z,0.00
2023-01-15T01:09:25.674Z,0.00
2023-01-15T01:10:25.681Z,0.00
2023-01-15T01:11:25.653Z,0.00
2023-01-15T01:12:25.637Z,0.00
2023-01-15T01:13:25.644Z,0.00
2023-01-15T01:14:25.685Z,0.00
2023-01-15T01:15:25.609Z,0.00
2023-01-15T01:16:26.201Z,0.00
2023-01-15T01:17:25.583Z,0.00
2023-01-15T01:18:25.592Z,0.00
2023-01-15T01:19:25.561Z,0.00
2023-01-15T01:20:25.637Z,0.00
2023-01-15T01:21:25.686Z,0.00
2023-01-15T01:22:25.532Z,0.00
2023-01-15T01:23:25.552Z,0.00
2023-01-15T01:24:25.527Z,0.00
2023-01-15T01:25:25.498Z,0.00
2023-01-15T01:26:25.509Z,0.00
2023-01-15T01:27:26.189Z,0.00
2023-01-15T01:28:25.524Z,0.00
2023-01-15T01:29:25.474Z,0.00
2023-01-15T01:30:25.457Z,0.00
2023-01-15T01:31:25.476Z,0.00
2023-01-15T01:32:25.423Z,0.00
2023-01-15T01:33:25.409Z,0.00
2023-01-15T01:34:25.424Z,0.00
2023-01-15T01:35:25.396Z,0.00
2023-01-15T01:36:25.390Z,0.00
2023-01-15T01:37:25.359Z,0.00
2023-01-15T01:38:25.359Z,0.00
2023-01-15T01:39:25.539Z,0.00
2023-01-15T01:40:25.344Z,0.00
2023-01-15T01:41:25.319Z,0.00
2023-01-15T01:42:25.297Z,0.00
2023-01-15T01:43:25.294Z,0.00
2023-01-15T01:44:25.317Z,0.00
2023-01-15T01:45:25.294Z,0.00
2023-01-15T01:46:25.264Z,0.00
2023-01-15T01:47:25.258Z,0.00
2023-01-15T01:48:25.231Z,0.00
2023-01-15T01:49:25.297Z,0.00
2023-01-15T01:50:25.213Z,0.00
2023-01-15T01:51:25.204Z,0.00
2023-01-15T01:52:25.195Z,0.00
2023-01-15T01:53:25.182Z,0.00
2023-01-15T01:54:25.204Z,0.00
2023-01-15T01:55:25.179Z,0.00
2023-01-15T01:56:25.146Z,0.00
2023-01-15T01:57:25.148Z,0.00
2023-01-15T01:58:25.125Z,0.00
2023-01-15T01:59:25.142Z,0.00
2023-01-15T02:00:25.233Z,0.00
2023-01-15T02:01:25.182Z,0.00
2023-01-15T02:02:25.162Z,0.00
2023-01-15T02:03:25.067Z,0.00
2023-01-15T02:04:25.107Z,0.00
2023-01-15T02:05:25.073Z,0.00
2023-01-15T02:06:25.037Z,0.00
2023-01-15T02:07:25.094Z,0.00
2023-01-15T02:08:25.019Z,0.00
2023-01-15T02:09:25.034Z,0.00
2023-01-15T02:10:24.995Z,0.00
2023-01-15T02:11:24.978Z,0.00
2023-01-15T02:12:24.978Z,0.00
2023-01-15T02:13:24.957Z,0.00
2023-01-15T02:14:24.967Z,0.00
2023-01-15T02:15:24.971Z,0.00
2023-01-15T02:16:24.951Z,0.00
2023-01-15T02:17:24.935Z,0.00
2023-01-15T02:18:24.938Z,0.00
2023-01-15T02:19:24.915Z,0.00
2023-01-15T02:20:24.879Z,0.00
2023-01-15T02:21:24.915Z,0.00
2023-01-15T02:22:24.871Z,0.00
2023-01-15T02:23:24.844Z,0.00
2023-01-15T02:24:24.935Z,0.00
2023-01-15T02:25:24.821Z,0.00
2023-01-15T02:26:24.816Z,0.00
2023-01-15T02:27:24.809Z,0.00
2023-01-15T02:28:24.795Z,0.00
2023-01-15T02:29:24.799Z,0.00
2023-01-15T02:30:24.764Z,0.00
2023-01-15T02:31:24.821Z,0.00
2023-01-15T02:32:24.751Z,0.00
2023-01-15T02:33:24.733Z,0.00
2023-01-15T02:34:24.730Z,0.00
2023-01-15T02:35:24.708Z,0.00
2023-01-15T02:36:24.721Z,0.00
2023-01-15T02:37:24.706Z,0.00
2023-01-15T02:38:24.746Z,0.00
2023-01-15T02:39:24.698Z,0.00
2023-01-15T02:40:24.700Z,0.00
2023-01-15T02:41:24.649Z,0.00
2023-01-15T02:42:24.651Z,0.00
2023-01-15T02:43:24.662Z,0.00
2023-01-15T02:44:24.612Z,0.00
2023-01-15T02:45:24.618Z,0.00
2023-01-15T02:46:25.229Z,0.00
2023-01-15T02:47:24.606Z,0.00
2023-01-15T02:48:24.555Z,0.00
2023-01-15T02:49:24.549Z,0.00
2023-01-15T02:50:24.551Z,0.00
2023-01-15T02:51:24.529Z,0.00
2023-01-15T02:52:24.540Z,0.00
2023-01-15T02:53:24.503Z,0.00
2023-01-15T02:54:24.508Z,0.00
2023-01-15T02:55:24.501Z,0.00
2023-01-15T02:56:24.488Z,0.00
2023-01-15T02:57:24.458Z,0.00
2023-01-15T02:58:24.455Z,0.00
2023-01-15T02:59:24.492Z,0.00
2023-01-15T03:00:24.460Z,0.00
2023-01-15T03:01:24.498Z,0.00
2023-01-15T03:02:24.464Z,0.00
2023-01-15T03:03:24.416Z,0.00
2023-01-15T03:04:24.380Z,0.00
2023-01-15T03:05:24.423Z,0.00
2023-01-15T03:06:25.369Z,0.00
2023-01-15T03:07:24.402Z,0.00
2023-01-15T03:08:24.344Z,0.00
2023-01-15T03:09:24.405Z,0.00
2023-01-15T03:10:24.753Z,0.00
2023-01-15T03:11:24.309Z,0.00
2023-01-15T03:12:24.332Z,0.00
2023-01-15T03:13:24.278Z,0.00
2023-01-15T03:14:24.309Z,0.00
2023-01-15T03:15:24.266Z,0.00
2023-01-15T03:16:24.291Z,0.00
2023-01-15T03:17:24.232Z,0.00
2023-01-15T03:18:24.239Z,0.00
2023-01-15T03:19:24.276Z,0.00
2023-01-15T03:20:24.361Z,0.00
2023-01-15T03:21:24.184Z,0.00
2023-01-15T03:22:24.179Z,0.00
2023-01-15T03:23:24.164Z,0.00
2023-01-15T03:24:24.179Z,0.00
2023-01-15T03:25:24.149Z,0.00
2023-01-15T03:26:24.157Z,0.00
2023-01-15T03:27:24.126Z,0.00
2023-01-15T03:28:24.131Z,0.00
2023-01-15T03:29:24.102Z,0.00
2023-01-15T03:30:24.204Z,0.00
2023-01-15T03:31:24.088Z,0.00
2023-01-15T03:32:24.129Z,0.00
2023-01-15T03:33:24.059Z,0.00
2023-01-15T03:34:24.055Z,0.00
2023-01-15T03:35:24.255Z,0.00
2023-01-15T03:36:24.021Z,0.00
2023-01-15T03:37:24.008Z,0.00
2023-01-15T03:38:23.999Z,0.00
2023-01-15T03:39:24.009Z,0.00
2023-01-15T03:40:24.023Z,0.00
2023-01-15T03:41:23.974Z,0.00
2023-01-15T03:42:23.958Z,0.00
2023-01-15T03:43:23.948Z,0.00
2023-01-15T03:44:23.953Z,0.00
2023-01-15T03:45:23.940Z,0.00
2023-01-15T03:46:23.972Z,0.00
2023-01-15T03:47:23.896Z,0.00
2023-01-15T03:48:24.613Z,0.00
2023-01-15T03:49:23.880Z,0.00
2023-01-15T03:50:23.873Z,0.00
2023-01-15T03:51:23.871Z,0.00
2023-01-15T03:52:23.843Z,0.00
2023-01-15T03:53:23.825Z,0.00
2023-01-15T03:54:23.836Z,0.00
2023-01-15T03:55:23.814Z,0.00
2023-01-15T03:56:23.801Z,0.00
2023-01-15T03:57:23.853Z,0.00
2023-01-15T03:58:23.800Z,0.00
2023-01-15T03:59:23.763Z,0.00
2023-01-15T04:00:23.775Z,0.00
2023-01-15T04:01:23.802Z,0.00
2023-01-15T04:02:23.755Z,0.00
2023-01-15T04:03:23.744Z,0.00
2023-01-15T04:04:23.827Z,0.00
2023-01-15T04:05:24.288Z,0.00
2023-01-15T04:06:23.684Z,0.00
2023-01-15T04:07:23.672Z,0.00
2023-01-15T04:08:23.670Z,0.00
2023-01-15T04:09:23.671Z,0.00
2023-01-15T04:10:23.691Z,0.00
2023-01-15T04:11:23.625Z,0.00
2023-01-15T04:12:23.615Z,0.00
2023-01-15T04:13:23.602Z,0.00
2023-01-15T04:14:23.639Z,0.00
2023-01-15T04:15:23.650Z,0.00
2023-01-15T04:16:23.582Z,0.00
2023-01-15T04:17:23.560Z,0.00
2023-01-15T04:18:24.115Z,0.00
2023-01-15T04:19:23.541Z,0.00
2023-01-15T04:20:23.538Z,0.00
2023-01-15T04:21:23.928Z,0.00
2023-01-15T04:22:23.507Z,0.00
2023-01-15T04:23:23.578Z,0.00
2023-01-15T04:24:23.479Z,0.00
2023-01-15T04:25:23.490Z,0.00
2023-01-15T04:26:23.485Z,0.00
2023-01-15T04:27:23.440Z,0.00
2023-01-15T04:28:23.439Z,0.00
2023-01-15T04:29:23.412Z,0.00
2023-01-15T04:30:23.413Z,0.00
2023-01-15T04:31:23.465Z,0.00
2023-01-15T04:32:23.404Z,0.00
2023-01-15T04:33:23.398Z,0.00
2023-01-15T04:34:23.367Z,0.00
2023-01-15T04:35:23.360Z,0.00
2023-01-15T04:36:23.422Z,0.00
2023-01-15T04:37:23.332Z,0.00
2023-01-15T04:38:23.328Z,0.00
2023-01-15T04:39:23.310Z,0.00
2023-01-15T04:40:23.311Z,0.00
2023-01-15T04:41:23.320Z,0.00
2023-01-15T04:42:23.281Z,0.00
2023-01-15T04:43:24.118Z,0.00
2023-01-15T04:44:23.266Z,0.00
2023-01-15T04:45:23.251Z,0.00
2023-01-15T04:46:24.285Z,0.00
2023-01-15T04:47:23.231Z,0.00
2023-01-15T04:48:23.226Z,0.00
2023-01-15T04:49:23.279Z,0.00
2023-01-15T04:50:23.193Z,0.00
2023-01-15T04:51:23.191Z,0.00
2023-01-15T04:52:23.184Z,0.00
2023-01-15T04:53:23.206Z,0.00
2023-01-15T04:54:23.150Z,0.00
2023-01-15T04:55:23.134Z,0.00
2023-01-15T04:56:23.200Z,0.00
2023-01-15T04:57:23.121Z,0.00
2023-01-15T04:58:23.106Z,0.00
2023-01-15T04:59:23.117Z,0.00
2023-01-15T05:00:23.084Z,0.00
2023-01-15T05:01:23.209Z,0.00
2023-01-15T05:02:23.232Z,0.00
2023-01-15T05:03:23.139Z,0.00
2023-01-15T05:04:23.089Z,0.00
2023-01-15T05:05:23.067Z,0.00
2023-01-15T05:06:23.050Z,0.00
2023-01-15T05:07:22.996Z,0.00
2023-01-15T05:08:22.993Z,0.00
2023-01-15T05:09:23.067Z,0.00
2023-01-15T05:10:22.976Z,0.00
2023-01-15T05:11:22.955Z,0.00
2023-01-15T05:12:22.975Z,0.00
2023-01-15T05:13:22.924Z,0.00
2023-01-15T05:14:23.792Z,0.00
2023-01-15T05:15:22.933Z,0.00
2023-01-15T05:16:22.908Z,0.00
2023-01-15T05:17:22.913Z,0.00
2023-01-15T05:18:22.872Z,0.00
2023-01-15T05:19:22.872Z,0.00
2023-01-15T05:20:22.889Z,0.00
2023-01-15T05:21:22.865Z,0.00
2023-01-15T05:22:22.892Z,0.00
2023-01-15T05:23:22.830Z,0.00
2023-01-15T05:24:22.836Z,0.00
2023-01-15T05:25:22.800Z,0.00
2023-01-15T05:26:22.891Z,0.00
2023-01-15T05:27:22.779Z,0.00
2023-01-15T05:28:22.770Z,0.00
2023-01-15T05:29:22.761Z,0.00
2023-01-15T05:30:22.764Z,0.00
2023-01-15T05:31:22.787Z,0.00
2023-01-15T05:32:22.750Z,0.00
2023-01-15T05:33:22.705Z,0.00
2023-01-15T05:34:23.275Z,0.00
2023-01-15T05:35:22.747Z,0.00
2023-01-15T05:36:22.710Z,0.00
2023-01-15T05:37:22.756Z,0.00
2023-01-15T05:38:22.659Z,0.00
2023-01-15T05:39:22.673Z,0.00
2023-01-15T05:40:22.639Z,0.00
2023-01-15T05:41:22.621Z,0.00
2023-01-15T05:42:22.744Z,0.00
2023-01-15T05:43:22.588Z,0.00
2023-01-15T05:44:22.617Z,0.00
2023-01-15T05:45:22.568Z,0.00
2023-01-15T05:46:22.623Z,0.00
2023-01-15T05:47:22.561Z,0.00
2023-01-15T05:48:22.604Z,0.00
2023-01-15T05:49:22.540Z,0.00
2023-01-15T05:50:23.271Z,0.00
2023-01-15T05:51:22.519Z,0.00
2023-01-15T05:52:22.526Z,0.00
2023-01-15T05:53:22.505Z,0.00
2023-01-15T05:54:22.482Z,0.00
2023-01-15T05:55:23.299Z,0.00
2023-01-15T05:56:22.460Z,0.00
2023-01-15T05:57:22.461Z,0.00
2023-01-15T05:58:22.434Z,0.00
2023-01-15T05:59:22.464Z,0.00
2023-01-15T06:00:22.503Z,0.00
2023-01-15T06:01:22.451Z,0.00
2023-01-15T06:02:22.565Z,0.00
2023-01-15T06:03:22.440Z,0.00
2023-01-15T06:04:22.372Z,0.00
2023-01-15T06:05:22.354Z,0.00
2023-01-15T06:06:22.343Z,0.00
2023-01-15T06:07:22.352Z,0.00
2023-01-15T06:08:22.318Z,0.00
2023-01-15T06:09:22.338Z,0.00
2023-01-15T06:10:22.302Z,0.00
2023-01-15T06:11:22.290Z,0.00
2023-01-15T06:12:22.285Z,0.00
2023-01-15T06:13:22.342Z,0.00
2023-01-15T06:14:22.252Z,0.00
2023-01-15T06:15:22.241Z,0.00
2023-01-15T06:16:22.354Z,0.00
2023-01-15T06:17:22.229Z,0.00
2023-01-15T06:18:22.254Z,0.00
2023-01-15T06:19:22.205Z,0.00
2023-01-15T06:20:22.194Z,0.00
2023-01-15T06:21:22.187Z,0.00
2023-01-15T06:22:22.172Z,0.00
2023-01-15T06:23:22.161Z,0.00
2023-01-15T06:24:22.139Z,0.00
2023-01-15T06:25:22.748Z,0.00
2023-01-15T06:26:22.737Z,0.00
2023-01-15T06:27:22.118Z,0.00
2023-01-15T06:28:22.097Z,0.00
2023-01-15T06:29:22.081Z,0.00
2023-01-15T06:30:22.081Z,0.00
2023-01-15T06:31:22.168Z,0.00
2023-01-15T06:32:22.055Z,0.00
2023-01-15T06:33:22.036Z,0.00
2023-01-15T06:34:22.081Z,0.00
2023-01-15T06:35:22.016Z,0.00
2023-01-15T06:36:22.005Z,0.00
2023-01-15T06:37:22.031Z,0.00
2023-01-15T06:38:22.004Z,4.00
2023-01-15T06:39:22.086Z,4.00
2023-01-15T06:40:21.976Z,4.00
2023-01-15T06:41:22.008Z,4.00
2023-01-15T06:42:21.961Z,4.00
2023-01-15T06:43:21.965Z,4.00
2023-01-15T06:44:22.014Z,8.00
2023-01-15T06:45:21.910Z,8.00
2023-01-15T06:46:21.992Z,8.00
2023-01-15T06:47:22.532Z,12.00
2023-01-15T06:48:21.865Z,12.00
2023-01-15T06:49:21.885Z,16.00
2023-01-15T06:50:21.850Z,16.00
2023-01-15T06:51:21.884Z,16.00
2023-01-15T06:52:21.853Z,16.00
2023-01-15T06:53:21.837Z,20.00
2023-01-15T06:54:22.738Z,24.00
2023-01-15T06:55:21.792Z,28.00
2023-01-15T06:56:21.776Z,32.00
2023-01-15T06:57:21.801Z,40.00
2023-01-15T06:58:21.769Z,48.00
2023-01-15T06:59:21.834Z,48.00
2023-01-15T07:00:21.741Z,52.00
2023-01-15T07:01:21.946Z,52.00
2023-01-15T07:02:22.061Z,52.00
2023-01-15T07:03:21.725Z,52.00
2023-01-15T07:04:21.687Z,52.00
2023-01-15T07:05:21.687Z,48.00
2023-01-15T07:06:21.675Z,48.00
2023-01-15T07:07:21.652Z,44.00
2023-01-15T07:08:21.740Z,56.00
2023-01-15T07:09:21.689Z,64.00
2023-01-15T07:10:21.631Z,84.00
2023-01-15T07:11:21.624Z,100.00
2023-01-15T07:12:21.629Z,120.00
2023-01-15T07:13:21.639Z,136.00
2023-01-15T07:14:21.581Z,144.00
2023-01-15T07:15:21.568Z,148.00
2023-01-15T07:16:21.594Z,152.00
2023-01-15T07:17:21.578Z,156.00
2023-01-15T07:18:21.569Z,164.00
2023-01-15T07:19:21.526Z,168.00
2023-01-15T07:20:21.518Z,168.00
2023-01-15T07:21:21.505Z,164.00
2023-01-15T07:22:21.495Z,152.00
2023-01-15T07:23:21.517Z,128.00
2023-01-15T07:24:21.587Z,120.00
2023-01-15T07:25:21.621Z,144.00
2023-01-15T07:26:21.447Z,208.00
2023-01-15T07:27:21.552Z,272.00
2023-01-15T07:28:21.432Z,308.00
2023-01-15T07:29:22.120Z,308.00
2023-01-15T07:30:21.444Z,288.00
2023-01-15T07:31:22.248Z,284.00
2023-01-15T07:32:21.381Z,300.00
2023-01-15T07:33:21.374Z,296.00
2023-01-15T07:34:21.491Z,288.00
2023-01-15T07:35:21.341Z,276.00
2023-01-15T07:36:21.365Z,268.00
2023-01-15T07:37:21.340Z,268.00
2023-01-15T07:38:21.327Z,268.00
2023-01-15T07:39:21.317Z,268.00
2023-01-15T07:40:21.462Z,272.00
2023-01-15T07:41:21.277Z,272.00
2023-01-15T07:42:21.262Z,268.00
2023-01-15T07:43:21.341Z,268.00
2023-01-15T07:44:21.253Z,280.00
2023-01-15T07:45:21.298Z,300.00
2023-01-15T07:46:21.215Z,312.00
2023-01-15T07:47:22.115Z,324.00
2023-01-15T07:48:21.352Z,332.00
2023-01-15T07:49:21.202Z,348.00
2023-01-15T07:50:22.115Z,348.00
2023-01-15T07:51:21.167Z,344.00
2023-01-15T07:52:21.186Z,340.00
2023-01-15T07:53:21.166Z,336.00
2023-01-15T07:54:21.139Z,324.00
2023-01-15T07:55:21.138Z,324.00
2023-01-15T07:56:21.106Z,356.00
2023-01-15T07:57:21.116Z,400.00
2023-01-15T07:58:21.183Z,432.00
2023-01-15T07:59:21.238Z,452.00
2023-01-15T08:00:21.101Z,448.00
2023-01-15T08:01:21.101Z,432.00
2023-01-15T08:02:21.046Z,424.00
2023-01-15T08:03:21.032Z,444.00
2023-01-15T08:04:21.065Z,456.00
2023-01-15T08:05:21.065Z,448.00
2023-01-15T08:06:20.995Z,440.00
2023-01-15T08:07:20.984Z,436.00
2023-01-15T08:08:20.997Z,432.00
2023-01-15T08:09:21.003Z,436.00
2023-01-15T08:10:20.984Z,448.00
2023-01-15T08:11:20.966Z,468.00
2023-01-15T08:12:20.947Z,512.00
2023-01-15T08:13:20.942Z,564.00
2023-01-15T08:14:20.930Z,588.00
2023-01-15T08:15:20.961Z,580.00
2023-01-15T08:16:20.946Z,564.00
2023-01-15T08:17:20.866Z,560.00
2023-01-15T08:18:20.864Z,572.00
2023-01-15T08:19:20.897Z,596.00
2023-01-15T08:20:20.849Z,608.00
2023-01-15T08:21:20.847Z,596.00
2023-01-15T08:22:20.810Z,588.00
2023-01-15T08:23:20.805Z,596.00
2023-01-15T08:24:20.977Z,636.00
2023-01-15T08:25:20.800Z,724.00
2023-01-15T08:26:20.764Z,812.00
2023-01-15T08:27:21.199Z,872.00
2023-01-15T08:28:20.743Z,880.00
2023-01-15T08:29:20.799Z,840.00
2023-01-15T08:30:20.739Z,812.00
2023-01-15T08:31:20.789Z,820.00
2023-01-15T08:32:20.705Z,836.00
2023-01-15T08:33:20.691Z,880.00
2023-01-15T08:34:20.758Z,880.00
2023-01-15T08:35:20.670Z,884.00
2023-01-15T08:36:20.704Z,920.00
2023-01-15T08:37:20.645Z,912.00
2023-01-15T08:38:20.637Z,888.00
2023-01-15T08:39:20.647Z,876.00
2023-01-15T08:40:20.619Z,916.00
2023-01-15T08:41:20.629Z,992.00
2023-01-15T08:42:20.585Z,1052.00
2023-01-15T08:43:20.626Z,1080.00
2023-01-15T08:44:20.563Z,1108.00
2023-01-15T08:45:20.643Z,1096.00
2023-01-15T08:46:21.070Z,1128.00
2023-01-15T08:47:20.536Z,1212.00
2023-01-15T08:48:20.584Z,1296.00
2023-01-15T08:49:20.529Z,1352.00
2023-01-15T08:50:28.882Z,1416.00
2023-01-15T08:51:20.495Z,1536.00
2023-01-15T08:52:20.494Z,1720.00
2023-01-15T08:53:20.496Z,1980.00
2023-01-15T08:54:20.489Z,2196.00
2023-01-15T08:55:20.479Z,2368.00
2023-01-15T08:56:20.499Z,2552.00
2023-01-15T08:57:20.426Z,2632.00
2023-01-15T08:58:20.411Z,2372.00
2023-01-15T08:59:20.405Z,2144.00
2023-01-15T09:00:20.405Z,2160.00
2023-01-15T09:01:20.469Z,2404.00
2023-01-15T09:02:20.383Z,2536.00
2023-01-15T09:03:20.361Z,2496.00
2023-01-15T09:04:20.410Z,2272.00
2023-01-15T09:05:20.373Z,2068.00
2023-01-15T09:06:20.328Z,1988.00
2023-01-15T09:07:20.461Z,2000.00
2023-01-15T09:08:20.478Z,2080.00
2023-01-15T09:09:20.324Z,2188.00
2023-01-15T09:10:20.279Z,2244.00
2023-01-15T09:11:20.268Z,2244.00
2023-01-15T09:12:20.292Z,2148.00
2023-01-15T09:13:21.381Z,2096.00
2023-01-15T09:14:58.885Z,2084.00
2023-01-15T09:15:20.249Z,1988.00
2023-01-15T09:16:20.246Z,1948.00
2023-01-15T09:17:20.204Z,1976.00
2023-01-15T09:18:20.187Z,2124.00
2023-01-15T09:19:20.173Z,2408.00
2023-01-15T09:20:20.289Z,2744.00
2023-01-15T09:21:20.155Z,3128.00
2023-01-15T09:22:20.175Z,3416.00
2023-01-15T09:23:20.173Z,3548.00
2023-01-15T09:24:20.138Z,3576.00
2023-01-15T09:25:20.280Z,3556.00
2023-01-15T09:26:20.093Z,3456.00
2023-01-15T09:27:28.552Z,3500.00
2023-01-15T09:28:20.107Z,3600.00
2023-01-15T09:29:21.844Z,3668.00
2023-01-15T09:30:20.072Z,3720.00
2023-01-15T09:31:20.035Z,3736.00
2023-01-15T09:32:20.026Z,3828.00
2023-01-15T09:33:20.060Z,3960.00
2023-01-15T09:34:20.787Z,3984.00
2023-01-15T09:35:20.007Z,3900.00
2023-01-15T09:36:19.998Z,3764.00
2023-01-15T09:37:19.991Z,3708.00
2023-01-15T09:38:19.967Z,3624.00
2023-01-15T09:39:20.176Z,3632.00
2023-01-15T09:40:19.949Z,3700.00
2023-01-15T09:41:19.981Z,3860.00
2023-01-15T09:42:19.926Z,4072.00
2023-01-15T09:43:19.904Z,4276.00
2023-01-15T09:44:19.913Z,4296.00
2023-01-15T09:45:20.283Z,4336.00
2023-01-15T09:46:19.912Z,4280.00
2023-01-15T09:47:19.865Z,4296.00
2023-01-15T09:48:19.861Z,4416.00
2023-01-15T09:49:19.870Z,4480.00
2023-01-15T09:50:19.937Z,4584.00
2023-01-15T09:51:19.837Z,4512.00
2023-01-15T09:52:20.795Z,4436.00
2023-01-15T09:53:19.816Z,4204.00
2023-01-15T09:54:20.771Z,3968.00
2023-01-15T09:55:19.785Z,3804.00
2023-01-15T09:56:19.754Z,3848.00
2023-01-15T09:57:19.869Z,3728.00
2023-01-15T09:58:19.751Z,3608.00
2023-01-15T09:59:19.806Z,3360.00
2023-01-15T10:00:19.811Z,3324.00
2023-01-15T10:01:19.769Z,2928.00
2023-01-15T10:02:19.687Z,2220.00
2023-01-15T10:03:19.736Z,1320.00
2023-01-15T10:04:19.719Z,1076.00
2023-01-15T10:05:19.800Z,1068.00
2023-01-15T10:06:19.677Z,1288.00
2023-01-15T10:07:19.718Z,1332.00
2023-01-15T10:08:19.672Z,2732.00
2023-01-15T10:09:19.632Z,3508.00
2023-01-15T10:10:19.679Z,4072.00
2023-01-15T10:11:19.593Z,4140.00
2023-01-15T10:12:19.574Z,3848.00
2023-01-15T10:13:19.686Z,2592.00
2023-01-15T10:14:19.552Z,2780.00
2023-01-15T10:15:19.620Z,2504.00
2023-01-15T10:16:19.572Z,2896.00
2023-01-15T10:17:19.531Z,3624.00
2023-01-15T10:18:19.599Z,4108.00
2023-01-15T10:19:19.747Z,4484.00
2023-01-15T10:20:19.559Z,4492.00
2023-01-15T10:21:19.487Z,3676.00
2023-01-15T10:22:19.465Z,2564.00
2023-01-15T10:23:19.463Z,2868.00
2023-01-15T10:24:19.457Z,3348.00
2023-01-15T10:25:19.464Z,2940.00
2023-01-15T10:26:19.474Z,2744.00
2023-01-15T10:27:19.472Z,2052.00
2023-01-15T10:28:19.406Z,1368.00
2023-01-15T10:29:19.424Z,1608.00
2023-01-15T10:30:19.439Z,1592.00
2023-01-15T10:31:19.571Z,1412.00
2023-01-15T10:32:19.414Z,1688.00
2023-01-15T10:33:19.369Z,2020.00
2023-01-15T10:34:19.330Z,1760.00
2023-01-15T10:35:19.353Z,1496.00
2023-01-15T10:36:19.344Z,1344.00
2023-01-15T10:37:19.314Z,1208.00
2023-01-15T10:38:19.283Z,1244.00
2023-01-15T10:39:21.162Z,1304.00
2023-01-15T10:40:19.257Z,1140.00
2023-01-15T10:41:19.295Z,1016.00
2023-01-15T10:42:19.243Z,936.00
2023-01-15T10:43:19.234Z,844.00
2023-01-15T10:44:19.251Z,980.00
2023-01-15T10:45:19.241Z,1064.00
2023-01-15T10:46:19.319Z,1500.00
2023-01-15T10:47:19.204Z,1212.00
2023-01-15T10:48:19.176Z,1124.00
2023-01-15T10:49:19.169Z,1084.00
2023-01-15T10:50:19.170Z,1004.00
2023-01-15T10:51:19.164Z,1156.00
2023-01-15T10:52:19.147Z,1364.00
2023-01-15T10:53:19.179Z,1896.00
2023-01-15T10:54:19.174Z,1580.00
2023-01-15T10:55:19.098Z,1760.00
2023-01-15T10:56:19.103Z,2152.00
2023-01-15T10:57:19.084Z,2088.00
2023-01-15T10:58:19.070Z,1648.00
2023-01-15T10:59:19.050Z,1488.00
2023-01-15T11:00:19.066Z,1492.00
2023-01-15T11:01:19.138Z,1672.00
2023-01-15T11:02:19.177Z,1832.00
2023-01-15T11:03:19.074Z,1792.00
2023-01-15T11:04:19.016Z,1524.00
2023-01-15T11:05:18.991Z,1352.00
2023-01-15T11:06:19.021Z,1280.00
2023-01-15T11:07:18.975Z,1228.00
2023-01-15T11:09:06.017Z,1236.00
2023-01-15T11:09:18.950Z,1440.00
2023-01-15T11:10:18.941Z,1612.00
2023-01-15T11:11:18.931Z,1736.00
2023-01-15T11:12:18.929Z,2040.00
2023-01-15T11:13:18.903Z,2504.00
2023-01-15T11:14:18.884Z,3312.00
2023-01-15T11:15:18.879Z,3896.00
2023-01-15T11:16:18.909Z,4060.00
2023-01-15T11:17:18.871Z,3400.00
2023-01-15T11:18:18.844Z,3256.00
2023-01-15T11:19:18.828Z,3176.00
2023-01-15T11:20:18.820Z,2988.00
2023-01-15T11:21:18.896Z,2684.00
2023-01-15T11:22:18.802Z,2644.00
2023-01-15T11:23:18.788Z,2520.00
2023-01-15T11:24:18.792Z,2516.00
2023-01-15T11:25:18.802Z,2348.00
2023-01-15T11:26:18.765Z,3100.00
2023-01-15T11:27:18.773Z,3572.00
2023-01-15T11:28:21.223Z,3604.00
2023-01-15T11:29:18.723Z,3752.00
2023-01-15T11:30:18.730Z,3728.00
2023-01-15T11:31:18.728Z,3656.00
2023-01-15T11:32:18.712Z,3632.00
2023-01-15T11:33:18.708Z,3564.00
2023-01-15T11:34:21.533Z,3188.00
2023-01-15T11:35:18.690Z,2948.00
2023-01-15T11:36:18.681Z,2192.00
2023-01-15T11:37:18.651Z,2076.00
2023-01-15T11:38:18.630Z,1924.00
2023-01-15T11:39:18.601Z,1784.00
2023-01-15T11:40:18.631Z,1360.00
2023-01-15T11:41:18.635Z,1156.00
2023-01-15T11:42:18.643Z,1000.00
2023-01-15T11:43:18.569Z,956.00
2023-01-15T11:44:18.596Z,1180.00
2023-01-15T11:45:18.546Z,1092.00
2023-01-15T11:46:18.623Z,900.00
2023-01-15T11:47:18.555Z,1048.00
2023-01-15T11:48:18.515Z,1028.00
2023-01-15T11:49:18.498Z,836.00
2023-01-15T11:50:18.500Z,868.00
2023-01-15T11:51:18.469Z,1204.00
2023-01-15T11:52:18.534Z,1076.00
2023-01-15T11:53:18.709Z,1288.00
2023-01-15T11:54:18.467Z,1356.00
2023-01-15T11:55:18.463Z,1360.00
2023-01-15T11:56:18.481Z,1396.00
2023-01-15T11:57:18.439Z,1308.00
2023-01-15T11:58:18.402Z,1292.00
2023-01-15T11:59:18.448Z,1276.00
2023-01-15T12:00:18.378Z,1272.00
2023-01-15T12:01:18.529Z,1316.00
2023-01-15T12:02:18.444Z,1272.00
2023-01-15T12:03:18.372Z,1216.00
2023-01-15T12:04:18.416Z,1216.00
2023-01-15T12:05:18.316Z,1356.00
2023-01-15T12:06:18.315Z,1304.00
2023-01-15T12:07:18.331Z,1468.00
2023-01-15T12:08:18.292Z,1424.00
2023-01-15T12:09:18.332Z,1344.00
2023-01-15T12:10:18.274Z,1352.00
2023-01-15T12:11:26.785Z,1420.00
2023-01-15T12:12:19.150Z,1568.00
2023-01-15T12:13:18.233Z,1488.00
2023-01-15T12:14:18.247Z,1504.00
2023-01-15T12:15:18.225Z,1312.00
2023-01-15T12:16:18.257Z,1336.00
2023-01-15T12:17:18.220Z,1440.00
2023-01-15T12:18:18.180Z,1536.00
2023-01-15T12:19:18.212Z,1464.00
2023-01-15T12:20:18.193Z,1508.00
2023-01-15T12:21:18.146Z,1468.00
2023-01-15T12:22:18.181Z,1620.00
2023-01-15T12:23:18.114Z,1532.00
2023-01-15T12:24:18.125Z,1448.00
2023-01-15T12:25:18.140Z,1436.00
2023-01-15T12:26:18.135Z,1312.00
2023-01-15T12:27:18.109Z,1196.00
2023-01-15T12:28:18.080Z,1284.00
2023-01-15T12:29:18.089Z,944.00
2023-01-15T12:30:18.048Z,1016.00
2023-01-15T12:31:18.046Z,1280.00
2023-01-15T12:32:18.053Z,1232.00
2023-01-15T12:33:18.071Z,1116.00
2023-01-15T12:34:18.002Z,1120.00
2023-01-15T12:35:18.058Z,1148.00
2023-01-15T12:36:18.028Z,1112.00
2023-01-15T12:37:17.961Z,992.00
2023-01-15T12:38:17.974Z,1140.00
2023-01-15T12:39:17.943Z,1156.00
2023-01-15T12:40:17.941Z,1128.00
2023-01-15T12:41:17.921Z,1180.00
2023-01-15T12:42:17.925Z,1224.00
2023-01-15T12:43:17.911Z,1304.00
2023-01-15T12:44:17.896Z,1360.00
2023-01-15T12:45:17.913Z,1436.00
2023-01-15T12:46:17.952Z,1488.00
2023-01-15T12:47:17.872Z,1568.00